createdAt,value
2022-09-10T00:01:25.218Z,97.72
2022-09-10T00:03:53.443Z,97.18
2022-09-10T00:06:20.508Z,97.39
2022-09-10T00:08:47.764Z,97.44
2022-09-10T00:11:17.702Z,97.92
2022-09-10T00:13:44.548Z,98.17
2022-09-10T00:16:14.072Z,98.37
2022-09-10T00:18:42.344Z,98.67
2022-09-10T00:21:12.472Z,98.85
2022-09-10T00:23:39.648Z,98.83
2022-09-10T00:26:26.739Z,98.52
2022-09-10T00:28:55.046Z,98.66
2022-09-10T00:31:23.162Z,98.47
2022-09-10T00:33:50.743Z,98.67
2022-09-10T00:36:27.224Z,98.55
2022-09-10T00:38:55.511Z,98.37
2022-09-10T00:41:24.821Z,98.75
2022-09-10T00:43:55.670Z,98.24
2022-09-10T00:46:31.606Z,97.99
2022-09-10T00:49:02.031Z,97.99
2022-09-10T00:51:31.218Z,97.97
2022-09-10T00:53:59.086Z,97.84
2022-09-10T00:56:26.164Z,98.19
2022-09-10T00:58:52.775Z,98.01
2022-09-10T01:01:19.736Z,98.57
2022-09-10T01:03:47.369Z,98.26
2022-09-10T01:06:13.931Z,97.95
2022-09-10T01:08:40.491Z,98.41
2022-09-10T01:11:37.743Z,98.89
2022-09-10T01:14:24.355Z,99.14
2022-09-10T01:17:03.626Z,99.68
2022-09-10T01:19:41.155Z,99.89
2022-09-10T01:22:13.840Z,99.71
2022-09-10T01:25:22.676Z,99.48
2022-09-10T01:27:53.750Z,99.44
2022-09-10T01:30:30.282Z,99.44
2022-09-10T01:33:15.348Z,99.57
2022-09-10T01:35:54.855Z,99.79
2022-09-10T01:38:38.476Z,99.85
2022-09-10T01:41:05.911Z,99.89
2022-09-10T01:43:33.268Z,100.00
2022-09-10T01:46:29.944Z,99.99
2022-09-10T01:49:11.630Z,100.00
2022-09-10T01:51:57.827Z,100.00
2022-09-10T01:54:39.376Z,100.00
2022-09-10T01:57:29.649Z,100.00
2022-09-10T02:00:10.030Z,100.00
2022-09-10T02:03:11.366Z,100.00
2022-09-10T02:05:41.727Z,100.00
2022-09-10T02:08:31.566Z,100.00
2022-09-10T02:11:00.986Z,100.00
2022-09-10T02:13:30.850Z,100.00
2022-09-10T02:15:57.679Z,100.00
2022-09-10T02:18:26.082Z,100.00
2022-09-10T02:20:56.015Z,100.00
2022-09-10T02:23:33.992Z,100.00
2022-09-10T02:26:00.912Z,100.00
2022-09-10T02:28:27.751Z,100.00
2022-09-10T02:30:55.071Z,100.00
2022-09-10T02:33:21.913Z,99.88
2022-09-10T02:35:49.778Z,99.89
2022-09-10T02:38:18.160Z,100.00
2022-09-10T02:40:46.839Z,100.00
2022-09-10T02:43:13.288Z,100.00
2022-09-10T02:45:41.135Z,100.00
2022-09-10T02:48:07.707Z,100.00
2022-09-10T02:50:35.108Z,100.00
2022-09-10T02:53:01.578Z,100.00
2022-09-10T02:55:28.244Z,100.00
2022-09-10T02:57:55.401Z,100.00
2022-09-10T03:00:22.659Z,100.00
2022-09-10T03:02:49.543Z,100.00
2022-09-10T03:05:17.337Z,100.00
2022-09-10T03:07:44.030Z,100.00
2022-09-10T03:10:10.488Z,100.00
2022-09-10T03:12:36.945Z,99.98
2022-09-10T03:15:03.559Z,100.00
2022-09-10T03:17:30.002Z,100.00
2022-09-10T03:19:56.438Z,100.00
2022-09-10T03:22:22.908Z,100.00
2022-09-10T03:24:49.632Z,100.00
2022-09-10T03:27:16.405Z,99.97
2022-09-10T03:29:43.255Z,100.00
2022-09-10T03:32:09.799Z,100.00
2022-09-10T03:34:36.317Z,100.00
2022-09-10T03:37:03.733Z,99.94
2022-09-10T03:39:30.164Z,100.00
2022-09-10T03:41:56.611Z,99.84
2022-09-10T03:44:23.423Z,99.93
2022-09-10T03:46:51.320Z,99.54
2022-09-10T03:49:17.769Z,99.46
2022-09-10T03:51:44.231Z,99.77
2022-09-10T03:54:10.696Z,99.70
2022-09-10T03:56:37.168Z,99.59
2022-09-10T03:59:03.633Z,99.70
2022-09-10T04:01:30.124Z,99.86
2022-09-10T04:03:57.498Z,99.87
2022-09-10T04:06:24.050Z,99.86
2022-09-10T04:08:52.771Z,99.82
2022-09-10T04:11:20.199Z,99.75
2022-09-10T04:13:48.546Z,99.40
2022-09-10T04:16:16.669Z,99.46
2022-09-10T04:18:43.371Z,99.54
2022-09-10T04:21:09.980Z,99.58
2022-09-10T04:23:36.460Z,99.58
2022-09-10T04:26:11.811Z,99.48
2022-09-10T04:28:38.448Z,99.55
2022-09-10T04:31:04.969Z,99.76
2022-09-10T04:33:33.249Z,99.58
2022-09-10T04:36:00.995Z,98.97
2022-09-10T04:38:30.510Z,99.16
2022-09-10T04:40:58.286Z,99.01
2022-09-10T04:43:25.711Z,98.79
2022-09-10T04:45:55.427Z,98.97
2022-09-10T04:48:23.144Z,98.49
2022-09-10T04:51:14.869Z,98.45
2022-09-10T04:53:41.467Z,98.09
2022-09-10T04:56:08.576Z,98.44
2022-09-10T04:58:38.611Z,98.42
2022-09-10T05:01:06.046Z,98.77
2022-09-10T05:03:32.603Z,99.07
2022-09-10T05:05:59.035Z,99.11
2022-09-10T05:08:25.593Z,99.02
2022-09-10T05:10:52.152Z,99.14
2022-09-10T05:13:18.914Z,99.17
2022-09-10T05:15:46.055Z,99.34
2022-09-10T05:18:12.694Z,99.22
2022-09-10T05:20:39.144Z,99.22
2022-09-10T05:23:05.680Z,99.19
2022-09-10T05:25:32.773Z,99.14
2022-09-10T05:28:01.247Z,99.20
2022-09-10T05:30:32.732Z,99.39
2022-09-10T05:33:00.952Z,98.92
2022-09-10T05:35:28.904Z,98.97
2022-09-10T05:38:00.004Z,98.94
2022-09-10T05:40:27.035Z,98.93
2022-09-10T05:42:54.246Z,98.72
2022-09-10T05:45:21.232Z,98.62
2022-09-10T05:47:47.872Z,98.48
2022-09-10T05:50:14.604Z,98.69
2022-09-10T05:52:41.104Z,98.97
2022-09-10T05:55:08.011Z,99.09
2022-09-10T05:57:34.459Z,98.70
2022-09-10T06:00:01.355Z,98.77
2022-09-10T06:02:27.970Z,99.02
2022-09-10T06:04:54.501Z,99.18
2022-09-10T06:07:20.975Z,99.24
2022-09-10T06:09:47.491Z,99.19
2022-09-10T06:12:13.954Z,99.23
2022-09-10T06:14:40.512Z,98.96
2022-09-10T06:17:08.580Z,99.04
2022-09-10T06:19:35.031Z,99.12
2022-09-10T06:22:01.465Z,98.78
2022-09-10T06:24:27.985Z,99.13
2022-09-10T06:26:54.568Z,99.27
2022-09-10T06:29:21.004Z,99.37
2022-09-10T06:31:47.606Z,99.14
2022-09-10T06:34:14.249Z,99.08
2022-09-10T06:36:41.495Z,98.87
2022-09-10T06:39:07.978Z,98.76
2022-09-10T06:41:34.687Z,98.42
2022-09-10T06:44:01.303Z,98.56
2022-09-10T06:49:14.993Z,98.33
2022-09-10T06:51:42.418Z,96.89
2022-09-10T06:54:09.015Z,95.14
2022-09-10T06:56:35.525Z,93.18
2022-09-10T06:59:02.739Z,94.84
2022-09-10T07:01:29.521Z,94.82
2022-09-10T07:03:57.681Z,93.87
2022-09-10T07:06:26.045Z,92.67
2022-09-10T07:08:57.054Z,92.97
2022-09-10T07:11:25.529Z,93.04
2022-09-10T07:13:53.840Z,92.64
2022-09-10T07:16:25.722Z,91.27
2022-09-10T07:18:54.585Z,89.86
2022-09-10T07:21:23.063Z,89.44
2022-09-10T07:23:51.775Z,88.62
2022-09-10T07:26:22.475Z,89.74
2022-09-10T07:28:49.025Z,87.67
2022-09-10T07:31:19.777Z,88.66
2022-09-10T07:33:47.340Z,88.30
2022-09-10T07:36:15.334Z,85.45
2022-09-10T07:38:42.614Z,86.19
2022-09-10T07:41:11.616Z,87.29
2022-09-10T07:43:42.726Z,87.00
2022-09-10T07:46:21.574Z,87.47
2022-09-10T07:48:52.596Z,86.39
2022-09-10T07:51:19.462Z,85.58
2022-09-10T07:53:50.484Z,87.68
2022-09-10T07:56:17.423Z,84.90
2022-09-10T07:58:44.837Z,86.60
2022-09-10T08:01:12.768Z,87.61
2022-09-10T08:03:40.534Z,85.33
2022-09-10T08:06:08.245Z,85.30
2022-09-10T08:08:38.301Z,86.61
2022-09-10T08:11:13.104Z,86.97
2022-09-10T08:13:41.552Z,87.23
2022-09-10T08:16:15.129Z,86.62
2022-09-10T08:18:43.123Z,84.72
2022-09-10T08:21:10.671Z,85.06
2022-09-10T08:23:39.621Z,84.60
2022-09-10T08:26:08.111Z,84.56
2022-09-10T08:28:35.758Z,84.61
2022-09-10T08:31:07.703Z,82.08
2022-09-10T08:33:35.799Z,79.51
2022-09-10T08:36:04.151Z,77.24
2022-09-10T08:38:33.348Z,82.24
2022-09-10T08:41:02.559Z,77.93
2022-09-10T08:43:35.453Z,78.38
2022-09-10T08:46:10.183Z,79.81
2022-09-10T08:48:39.811Z,80.67
2022-09-10T08:51:25.236Z,79.76
2022-09-10T08:53:57.552Z,80.83
2022-09-10T08:56:25.491Z,78.30
2022-09-10T08:59:16.943Z,79.79
2022-09-10T09:02:44.925Z,76.32
2022-09-10T09:05:17.972Z,72.89
2022-09-10T09:07:47.050Z,72.40
2022-09-10T09:10:45.080Z,76.27
2022-09-10T09:13:21.187Z,76.01
2022-09-10T09:15:56.079Z,75.09
2022-09-10T09:18:36.719Z,73.32
2022-09-10T09:21:15.870Z,70.62
2022-09-10T09:24:12.602Z,71.67
2022-09-10T09:26:50.408Z,70.34
2022-09-10T09:29:38.098Z,70.33
2022-09-10T09:32:09.086Z,68.65
2022-09-10T09:35:12.646Z,68.63
2022-09-10T09:37:42.085Z,66.55
2022-09-10T09:40:16.791Z,65.48
2022-09-10T09:43:06.307Z,67.19
2022-09-10T09:45:44.055Z,68.92
2022-09-10T09:48:18.383Z,70.21
2022-09-10T09:50:51.676Z,70.19
2022-09-10T09:53:48.212Z,69.50
2022-09-10T09:56:42.674Z,65.92
2022-09-10T09:59:24.579Z,69.00
2022-09-10T10:02:15.287Z,70.02
2022-09-10T10:04:54.941Z,66.16
2022-09-10T10:07:32.854Z,67.81
2022-09-10T10:10:07.413Z,64.83
2022-09-10T10:12:39.285Z,67.41
2022-09-10T10:15:26.100Z,68.80
2022-09-10T10:17:53.255Z,68.74
2022-09-10T10:20:36.359Z,68.00
2022-09-10T10:23:31.056Z,64.09
2022-09-10T10:25:58.075Z,67.64
2022-09-10T10:28:26.276Z,67.41
2022-09-10T10:30:54.800Z,68.92
2022-09-10T10:36:33.039Z,62.93
2022-09-10T10:39:27.522Z,62.89
2022-09-10T10:42:42.088Z,64.04
2022-09-10T10:45:50.043Z,63.39
2022-09-10T10:49:10.658Z,63.67
2022-09-10T10:52:00.094Z,63.77
2022-09-10T10:54:37.491Z,60.15
2022-09-10T10:57:25.283Z,62.07
2022-09-10T11:00:04.116Z,61.22
2022-09-10T11:02:36.157Z,60.89
2022-09-10T11:05:19.377Z,58.64
2022-09-10T11:07:47.267Z,59.38
2022-09-10T11:10:33.197Z,60.82
2022-09-10T11:13:09.468Z,60.88
2022-09-10T11:15:44.157Z,57.29
2022-09-10T11:18:34.045Z,60.71
2022-09-10T11:21:29.828Z,61.52
2022-09-10T11:24:14.959Z,60.79
2022-09-10T11:27:05.715Z,58.52
2022-09-10T11:30:06.924Z,60.90
2022-09-10T11:32:56.616Z,57.73
2022-09-10T11:35:31.558Z,55.07
2022-09-10T11:38:24.886Z,57.39
2022-09-10T11:41:03.917Z,56.84
2022-09-10T11:43:37.379Z,58.17
2022-09-10T11:46:10.831Z,58.18
2022-09-10T11:48:48.139Z,59.67
2022-09-10T11:51:23.935Z,57.87
2022-09-10T11:53:51.413Z,56.19
2022-09-10T11:56:50.515Z,55.04
2022-09-10T11:59:17.055Z,57.37
2022-09-10T12:02:05.384Z,56.81
2022-09-10T12:05:04.151Z,58.81
2022-09-10T12:07:50.737Z,51.42
2022-09-10T12:10:52.840Z,56.43
2022-09-10T12:13:19.526Z,53.07
2022-09-10T12:16:44.379Z,56.11
2022-09-10T12:19:41.216Z,57.04
2022-09-10T12:22:31.102Z,51.94
2022-09-10T12:25:03.109Z,54.64
2022-09-10T12:27:49.624Z,52.51
2022-09-10T12:30:25.282Z,53.51
2022-09-10T12:33:42.465Z,52.54
2022-09-10T12:36:10.565Z,52.95
2022-09-10T12:39:19.162Z,51.32
2022-09-10T12:42:12.239Z,51.97
2022-09-10T12:44:38.692Z,49.40
2022-09-10T12:47:17.475Z,50.62
2022-09-10T12:50:05.918Z,50.59
2022-09-10T12:52:35.421Z,51.78
2022-09-10T12:55:29.027Z,49.74
2022-09-10T13:01:57.568Z,50.98
2022-09-10T13:04:30.853Z,51.49
2022-09-10T13:07:01.503Z,50.92
2022-09-10T13:10:27.616Z,50.95
2022-09-10T13:12:57.786Z,49.56
2022-09-10T13:15:31.664Z,51.30
2022-09-10T13:17:58.102Z,52.60
2022-09-10T13:20:25.732Z,52.07
2022-09-10T13:23:06.541Z,53.51
2022-09-10T13:25:39.723Z,52.14
2022-09-10T13:28:31.404Z,54.82
2022-09-10T13:31:26.121Z,53.12
2022-09-10T13:34:15.355Z,53.52
2022-09-10T13:37:02.362Z,56.57
2022-09-10T13:39:53.820Z,52.46
2022-09-10T13:42:46.903Z,55.71
2022-09-10T13:45:29.979Z,51.51
2022-09-10T13:48:06.335Z,52.07
2022-09-10T13:50:39.626Z,52.37
2022-09-10T13:53:08.973Z,51.68
2022-09-10T13:55:37.069Z,52.06
2022-09-10T13:58:36.932Z,52.82
2022-09-10T14:01:05.054Z,51.24
2022-09-10T14:03:52.914Z,51.44
2022-09-10T14:06:24.038Z,49.59
2022-09-10T14:08:59.793Z,53.22
2022-09-10T14:11:30.054Z,53.14
2022-09-10T14:14:04.262Z,47.48
2022-09-10T14:16:39.138Z,48.05
2022-09-10T14:19:16.820Z,50.26
2022-09-10T14:21:57.824Z,49.47
2022-09-10T14:24:38.256Z,46.57
2022-09-10T14:27:05.846Z,49.59
2022-09-10T14:29:32.484Z,45.58
2022-09-10T14:32:25.992Z,49.59
2022-09-10T14:37:43.142Z,52.12
2022-09-10T14:40:23.798Z,48.71
2022-09-10T14:42:50.704Z,50.68
2022-09-10T14:45:40.614Z,48.05
2022-09-10T14:48:28.354Z,48.54
2022-09-10T14:51:14.587Z,49.96
2022-09-10T14:53:42.948Z,50.36
2022-09-10T14:56:19.601Z,51.74
2022-09-10T14:58:46.860Z,52.14
2022-09-10T15:01:13.570Z,51.04
2022-09-10T15:03:42.307Z,54.72
2022-09-10T15:06:13.678Z,49.17
2022-09-10T15:08:44.044Z,46.31
2022-09-10T15:11:22.597Z,44.94
2022-09-10T15:13:50.801Z,44.16
2022-09-10T15:16:17.828Z,44.42
2022-09-10T15:18:44.493Z,43.44
2022-09-10T15:21:14.620Z,42.25
2022-09-10T15:23:42.083Z,41.94
2022-09-10T15:26:14.227Z,43.16
2022-09-10T15:28:41.544Z,41.29
2022-09-10T15:31:08.871Z,39.70
2022-09-10T15:33:36.290Z,38.44
2022-09-10T15:36:03.667Z,38.92
2022-09-10T15:38:31.607Z,38.04
2022-09-10T15:41:13.747Z,34.56
2022-09-10T15:43:43.072Z,34.22
2022-09-10T15:46:11.491Z,32.19
2022-09-10T15:48:38.658Z,35.86
2022-09-10T15:51:10.982Z,38.51
2022-09-10T15:53:39.647Z,41.46
2022-09-10T15:56:08.146Z,42.46
2022-09-10T15:58:35.847Z,43.71
2022-09-10T16:01:50.075Z,42.43
2022-09-10T16:04:17.218Z,43.55
2022-09-10T16:06:44.498Z,43.35
2022-09-10T16:09:12.701Z,42.37
2022-09-10T16:11:41.613Z,42.84
2022-09-10T16:14:12.610Z,47.13
2022-09-10T16:16:41.073Z,47.27
2022-09-10T16:19:07.843Z,48.61
2022-09-10T16:21:37.720Z,51.10
2022-09-10T16:24:05.774Z,51.11
2022-09-10T16:26:40.544Z,52.31
2022-09-10T16:29:13.189Z,52.94
2022-09-10T16:31:39.670Z,54.63
2022-09-10T16:34:08.804Z,53.62
2022-09-10T16:36:37.089Z,55.03
2022-09-10T16:39:11.904Z,56.04
2022-09-10T16:41:49.223Z,54.81
2022-09-10T16:44:17.540Z,56.17
2022-09-10T16:46:45.133Z,59.24
2022-09-10T16:49:15.262Z,62.82
2022-09-10T16:51:43.137Z,60.81
2022-09-10T16:54:11.484Z,61.29
2022-09-10T16:56:40.956Z,64.09
2022-09-10T16:59:09.878Z,60.36
2022-09-10T17:01:37.408Z,58.17
2022-09-10T17:04:05.278Z,59.08
2022-09-10T17:06:32.004Z,60.10
2022-09-10T17:09:00.836Z,59.17
2022-09-10T17:11:31.433Z,61.84
2022-09-10T17:13:59.075Z,60.84
2022-09-10T17:16:26.438Z,64.39
2022-09-10T17:18:59.001Z,64.82
2022-09-10T17:21:26.691Z,64.80
2022-09-10T17:23:55.791Z,63.30
2022-09-10T17:26:24.231Z,63.16
2022-09-10T17:29:02.555Z,62.43
2022-09-10T17:31:29.766Z,62.44
2022-09-10T17:33:57.414Z,64.59
2022-09-10T17:36:27.744Z,64.92
2022-09-10T17:38:55.612Z,69.04
2022-09-10T17:41:23.948Z,65.95
2022-09-10T17:43:51.222Z,67.42
2022-09-10T17:46:20.355Z,68.04
2022-09-10T17:48:48.262Z,66.87
2022-09-10T17:51:20.546Z,68.36
2022-09-10T17:53:47.147Z,69.54
2022-09-10T17:56:16.031Z,70.51
2022-09-10T17:58:42.942Z,69.77
2022-09-10T18:01:26.293Z,70.21
2022-09-10T18:03:53.752Z,72.13
2022-09-10T18:06:21.682Z,72.79
2022-09-10T18:08:48.478Z,73.97
2022-09-10T18:11:18.032Z,75.03
2022-09-10T18:13:44.823Z,75.17
2022-09-10T18:16:17.187Z,74.82
2022-09-10T18:18:45.617Z,76.27
2022-09-10T18:21:18.109Z,76.85
2022-09-10T18:23:49.410Z,76.54
2022-09-10T18:26:19.355Z,77.87
2022-09-10T18:28:59.466Z,76.71
2022-09-10T18:31:40.848Z,77.32
2022-09-10T18:34:10.634Z,78.18
2022-09-10T18:36:37.177Z,77.92
2022-09-10T18:39:08.121Z,77.92
2022-09-10T18:41:38.644Z,78.35
2022-09-10T18:44:15.091Z,78.38
2022-09-10T18:46:42.655Z,79.10
2022-09-10T18:49:11.927Z,79.44
2022-09-10T18:51:38.380Z,79.38
2022-09-10T18:54:05.359Z,79.67
2022-09-10T18:56:32.430Z,79.78
2022-09-10T18:59:07.075Z,80.57
2022-09-10T19:01:44.304Z,81.45
2022-09-10T19:04:14.745Z,82.54
2022-09-10T19:06:44.786Z,82.36
2022-09-10T19:09:13.983Z,80.69
2022-09-10T19:11:42.650Z,80.57
2022-09-10T19:14:31.894Z,80.21
2022-09-10T19:17:00.505Z,80.18
2022-09-10T19:19:29.580Z,79.82
2022-09-10T19:22:02.732Z,79.89
2022-09-10T19:24:53.572Z,79.94
2022-09-10T19:27:17.360Z,79.54
2022-09-10T19:29:44.439Z,80.17
2022-09-10T19:32:11.469Z,79.97
2022-09-10T19:34:39.049Z,81.27
2022-09-10T19:37:07.400Z,82.94
2022-09-10T19:39:34.431Z,83.29
2022-09-10T19:42:01.035Z,83.52
2022-09-10T19:44:28.051Z,83.22
2022-09-10T19:46:55.253Z,82.44
2022-09-10T19:49:22.264Z,82.44
2022-09-10T19:51:48.782Z,82.62
2022-09-10T19:54:16.126Z,82.59
2022-09-10T19:56:43.128Z,82.73
2022-09-10T19:59:09.892Z,83.62
2022-09-10T20:01:39.241Z,83.71
2022-09-10T20:04:08.802Z,83.97
2022-09-10T20:06:36.113Z,83.69
2022-09-10T20:09:04.846Z,83.37
2022-09-10T20:11:33.051Z,83.41
2022-09-10T20:14:07.916Z,83.37
2022-09-10T20:16:40.259Z,84.01
2022-09-10T20:19:07.574Z,83.68
2022-09-10T20:21:35.500Z,83.69
2022-09-10T20:24:02.063Z,83.93
2022-09-10T20:26:34.361Z,84.22
2022-09-10T20:29:04.006Z,84.34
2022-09-10T20:31:33.830Z,84.63
2022-09-10T20:34:03.683Z,84.83
2022-09-10T20:36:31.705Z,86.12
2022-09-10T20:38:58.963Z,86.54
2022-09-10T20:41:30.435Z,87.99
2022-09-10T20:43:59.638Z,88.71
2022-09-10T20:46:28.223Z,88.05
2022-09-10T20:48:56.844Z,87.97
2022-09-10T20:51:23.782Z,88.24
2022-09-10T20:53:50.302Z,87.58
2022-09-10T20:56:19.266Z,87.72
2022-09-10T20:58:46.937Z,88.49
2022-09-10T21:01:15.076Z,88.47
2022-09-10T21:03:41.849Z,88.74
2022-09-10T21:06:09.995Z,89.46
2022-09-10T21:08:41.230Z,90.60
2022-09-10T21:11:10.607Z,89.77
2022-09-10T21:13:38.058Z,90.12
2022-09-10T21:16:11.298Z,89.66
2022-09-10T21:18:41.107Z,90.19
2022-09-10T21:21:12.931Z,91.59
2022-09-10T21:23:44.169Z,91.45
2022-09-10T21:26:12.268Z,91.54
2022-09-10T21:28:39.438Z,91.46
2022-09-10T21:31:08.484Z,91.84
2022-09-10T21:33:36.306Z,91.48
2022-09-10T21:36:07.261Z,90.85
2022-09-10T21:38:38.078Z,90.68
2022-09-10T21:41:06.891Z,90.70
2022-09-10T21:43:35.043Z,90.79
2022-09-10T21:46:03.080Z,90.59
2022-09-10T21:48:30.952Z,90.62
2022-09-10T21:51:05.180Z,90.75
2022-09-10T21:53:32.920Z,91.17
2022-09-10T21:56:01.159Z,90.81
2022-09-10T21:58:29.715Z,90.69
2022-09-10T22:01:00.008Z,91.17
2022-09-10T22:03:28.263Z,91.14
2022-09-10T22:06:09.456Z,90.67
2022-09-10T22:08:37.705Z,91.07
2022-09-10T22:11:10.183Z,91.73
2022-09-10T22:13:38.009Z,92.10
2022-09-10T22:16:05.908Z,92.57
2022-09-10T22:18:34.128Z,93.04
2022-09-10T22:21:00.972Z,92.84
2022-09-10T22:23:38.470Z,92.51
2022-09-10T22:26:06.699Z,92.42
2022-09-10T22:28:34.914Z,92.42
2022-09-10T22:31:10.167Z,93.19
2022-09-10T22:33:41.924Z,93.13
2022-09-10T22:36:16.618Z,93.12
2022-09-10T22:38:43.570Z,93.12
2022-09-10T22:41:10.568Z,92.98
2022-09-10T22:43:40.779Z,93.16
2022-09-10T22:46:07.860Z,93.54
2022-09-10T22:48:38.967Z,93.26
2022-09-10T22:51:07.284Z,93.40
2022-09-10T22:53:35.309Z,93.49
2022-09-10T22:56:02.569Z,93.89
2022-09-10T22:58:29.100Z,93.37
2022-09-10T23:00:56.294Z,93.61
2022-09-10T23:03:23.069Z,93.59
2022-09-10T23:05:49.603Z,93.97
2022-09-10T23:08:17.066Z,93.52
2022-09-10T23:10:43.601Z,93.79
2022-09-10T23:13:10.120Z,94.09
2022-09-10T23:15:36.681Z,94.37
2022-09-10T23:18:03.386Z,94.42
2022-09-10T23:20:30.063Z,94.64
2022-09-10T23:22:56.506Z,95.02
2022-09-10T23:25:22.989Z,94.74
2022-09-10T23:27:51.179Z,95.09
2022-09-10T23:30:18.160Z,95.13
2022-09-10T23:32:45.147Z,95.16
2022-09-10T23:35:11.603Z,95.22
2022-09-10T23:37:38.400Z,94.94
2022-09-10T23:40:05.978Z,95.37
2022-09-10T23:42:33.364Z,94.81
2022-09-10T23:45:00.039Z,94.77
2022-09-10T23:47:26.991Z,94.99
2022-09-10T23:49:53.430Z,95.18
2022-09-10T23:52:20.478Z,95.58
2022-09-10T23:54:47.463Z,95.89
2022-09-10T23:57:13.950Z,95.72
2022-09-10T23:59:40.476Z,96.03
